createdAt,value
2023-02-13T00:00:23.578Z,57.37
2023-02-13T00:03:46.405Z,57.12
2023-02-13T00:06:49.737Z,57.31
2023-02-13T00:09:52.537Z,57.50
2023-02-13T00:12:55.359Z,57.70
2023-02-13T00:16:00.925Z,58.14
2023-02-13T00:19:03.824Z,58.55
2023-02-13T00:22:06.742Z,59.00
2023-02-13T00:25:09.840Z,59.49
2023-02-13T00:28:12.744Z,59.60
2023-02-13T00:31:19.179Z,60.13
2023-02-13T00:34:23.330Z,59.91
2023-02-13T00:37:26.502Z,60.16
2023-02-13T00:40:29.333Z,60.07
2023-02-13T00:43:32.611Z,60.35
2023-02-13T00:46:35.583Z,60.34
2023-02-13T00:49:38.382Z,60.35
2023-02-13T00:52:41.196Z,60.56
2023-02-13T00:55:44.902Z,60.39
2023-02-13T00:58:47.854Z,60.35
2023-02-13T01:01:51.137Z,59.96
2023-02-13T01:04:54.043Z,59.79
2023-02-13T01:07:57.070Z,59.76
2023-02-13T01:11:00.355Z,59.86
2023-02-13T01:14:03.462Z,60.03
2023-02-13T01:17:06.225Z,60.37
2023-02-13T01:20:11.311Z,60.50
2023-02-13T01:23:14.177Z,61.05
2023-02-13T01:26:19.813Z,62.02
2023-02-13T01:29:22.712Z,62.38
2023-02-13T01:32:25.748Z,62.94
2023-02-13T01:35:28.567Z,62.76
2023-02-13T01:38:31.392Z,63.21
2023-02-13T01:41:35.701Z,63.26
2023-02-13T01:44:52.176Z,62.97
2023-02-13T01:48:11.200Z,63.19
2023-02-13T01:51:20.364Z,62.76
2023-02-13T01:54:31.263Z,63.10
2023-02-13T01:57:36.980Z,63.18
2023-02-13T02:00:40.404Z,62.65
2023-02-13T02:03:53.137Z,62.96
2023-02-13T02:07:00.505Z,62.98
2023-02-13T02:10:10.256Z,63.70
2023-02-13T02:13:19.343Z,63.85
2023-02-13T02:16:22.850Z,63.45
2023-02-13T02:19:40.761Z,63.84
2023-02-13T02:22:46.798Z,62.93
2023-02-13T02:26:04.648Z,63.76
2023-02-13T02:29:29.852Z,63.58
2023-02-13T02:32:58.348Z,64.10
2023-02-13T02:36:33.188Z,64.49
2023-02-13T02:39:57.786Z,64.48
2023-02-13T02:43:16.007Z,64.11
2023-02-13T02:46:37.559Z,64.90
2023-02-13T02:49:59.926Z,65.19
2023-02-13T02:53:24.455Z,65.09
2023-02-13T02:56:34.772Z,64.99
2023-02-13T02:59:59.257Z,65.30
2023-02-13T03:03:23.911Z,65.27
2023-02-13T03:06:35.932Z,65.41
2023-02-13T03:10:05.565Z,65.52
2023-02-13T03:13:23.905Z,65.92
2023-02-13T03:16:45.540Z,66.39
2023-02-13T03:20:38.734Z,66.23
2023-02-13T03:24:04.928Z,66.27
2023-02-13T03:27:44.861Z,66.58
2023-02-13T03:30:50.304Z,66.05
2023-02-13T03:34:25.433Z,66.27
2023-02-13T03:37:52.763Z,66.52
2023-02-13T03:41:20.683Z,66.79
2023-02-13T03:45:09.490Z,66.87
2023-02-13T03:48:35.385Z,67.13
2023-02-13T03:51:52.342Z,67.47
2023-02-13T03:55:22.979Z,67.71
2023-02-13T03:58:53.998Z,68.12
2023-02-13T04:02:02.862Z,67.76
2023-02-13T04:05:15.568Z,67.57
2023-02-13T04:08:18.297Z,67.78
2023-02-13T04:11:30.633Z,67.42
2023-02-13T04:15:12.124Z,67.25
2023-02-13T04:18:20.896Z,67.11
2023-02-13T04:21:24.274Z,67.23
2023-02-13T04:24:27.840Z,67.08
2023-02-13T04:27:30.464Z,66.85
2023-02-13T04:30:33.972Z,66.83
2023-02-13T04:33:36.558Z,67.13
2023-02-13T04:36:39.834Z,67.11
2023-02-13T04:39:42.449Z,67.17
2023-02-13T04:42:48.542Z,67.04
2023-02-13T04:45:51.704Z,67.06
2023-02-13T04:48:54.891Z,66.46
2023-02-13T04:51:57.524Z,65.88
2023-02-13T04:55:00.684Z,66.65
2023-02-13T04:58:03.183Z,66.66
2023-02-13T05:01:15.252Z,66.79
2023-02-13T05:04:17.900Z,66.46
2023-02-13T05:07:21.056Z,66.59
2023-02-13T05:10:23.607Z,66.52
2023-02-13T05:13:26.849Z,66.63
2023-02-13T05:16:29.486Z,66.73
2023-02-13T05:19:32.585Z,66.74
2023-02-13T05:22:53.713Z,67.00
2023-02-13T05:25:56.791Z,66.57
2023-02-13T05:29:17.917Z,66.81
2023-02-13T05:32:21.007Z,66.93
2023-02-13T05:35:24.894Z,66.86
2023-02-13T05:38:28.014Z,66.84
2023-02-13T05:41:30.676Z,66.84
2023-02-13T05:44:33.861Z,66.55
2023-02-13T05:47:36.965Z,66.71
2023-02-13T05:50:43.553Z,66.92
2023-02-13T05:53:46.136Z,66.54
2023-02-13T05:56:49.284Z,66.30
2023-02-13T05:59:51.789Z,66.60
2023-02-13T06:02:54.885Z,66.65
2023-02-13T06:05:58.302Z,66.55
2023-02-13T06:09:01.082Z,66.83
2023-02-13T06:12:04.161Z,67.11
2023-02-13T06:15:07.664Z,66.80
2023-02-13T06:18:11.271Z,66.54
2023-02-13T06:21:14.198Z,66.12
2023-02-13T06:24:17.144Z,66.47
2023-02-13T06:27:20.030Z,66.45
2023-02-13T06:30:23.120Z,65.54
2023-02-13T06:33:26.102Z,65.91
2023-02-13T06:36:29.080Z,65.71
2023-02-13T06:39:31.868Z,64.99
2023-02-13T06:42:34.750Z,64.67
2023-02-13T06:45:38.277Z,64.53
2023-02-13T06:48:40.953Z,64.90
2023-02-13T06:51:44.098Z,64.48
2023-02-13T06:54:48.210Z,64.15
2023-02-13T06:57:51.149Z,64.40
2023-02-13T07:00:54.129Z,64.08
2023-02-13T07:03:57.657Z,63.79
2023-02-13T07:07:00.434Z,63.36
2023-02-13T07:10:04.859Z,63.33
2023-02-13T07:13:08.466Z,63.17
2023-02-13T07:16:11.556Z,62.44
2023-02-13T07:19:14.724Z,62.21
2023-02-13T07:22:17.476Z,63.52
2023-02-13T07:25:20.313Z,61.78
2023-02-13T07:28:23.131Z,61.14
2023-02-13T07:31:26.093Z,60.72
2023-02-13T07:34:29.047Z,61.03
2023-02-13T07:37:32.018Z,59.78
2023-02-13T07:40:34.822Z,59.33
2023-02-13T07:43:37.645Z,60.08
2023-02-13T07:46:40.514Z,60.28
2023-02-13T07:49:44.653Z,59.62
2023-02-13T07:52:58.262Z,58.63
2023-02-13T07:56:09.133Z,57.92
2023-02-13T07:59:12.044Z,57.20
2023-02-13T08:02:16.340Z,55.21
2023-02-13T08:05:19.604Z,54.11
2023-02-13T08:08:22.327Z,52.31
2023-02-13T08:11:51.608Z,48.89
2023-02-13T08:14:54.282Z,43.26
2023-02-13T08:17:57.692Z,35.82
2023-02-13T08:21:02.568Z,32.57
2023-02-13T08:24:06.923Z,32.00
2023-02-13T08:27:14.661Z,33.91
2023-02-13T08:30:18.236Z,33.01
2023-02-13T08:33:20.903Z,30.84
2023-02-13T08:36:24.842Z,28.19
2023-02-13T08:39:27.500Z,27.51
2023-02-13T08:42:31.424Z,26.60
2023-02-13T08:45:36.197Z,24.05
2023-02-13T08:48:39.369Z,22.86
2023-02-13T08:51:42.050Z,22.89
2023-02-13T08:54:45.291Z,22.68
2023-02-13T08:57:48.051Z,22.06
2023-02-13T09:00:51.300Z,22.47
2023-02-13T09:03:54.152Z,23.08
2023-02-13T09:06:57.328Z,22.43
2023-02-13T09:09:59.996Z,20.62
2023-02-13T09:13:05.951Z,18.88
2023-02-13T09:16:15.247Z,16.64
2023-02-13T09:19:22.766Z,14.22
2023-02-13T09:22:25.384Z,12.82
2023-02-13T09:25:28.620Z,11.42
2023-02-13T09:28:32.429Z,10.58
2023-02-13T09:31:35.729Z,10.10
2023-02-13T09:34:38.435Z,9.59
2023-02-13T09:37:41.523Z,9.36
2023-02-13T09:41:03.202Z,9.49
2023-02-13T09:44:35.059Z,8.53
2023-02-13T09:47:41.404Z,8.57
2023-02-13T09:50:44.602Z,8.51
2023-02-13T09:54:11.169Z,8.54
2023-02-13T09:57:25.495Z,8.56
2023-02-13T10:00:39.447Z,8.35
2023-02-13T10:03:48.211Z,8.39
2023-02-13T10:07:16.330Z,8.63
2023-02-13T10:10:38.170Z,8.94
2023-02-13T10:13:49.582Z,9.64
2023-02-13T10:17:05.478Z,10.23
2023-02-13T10:20:36.622Z,12.62
2023-02-13T10:23:50.320Z,16.08
2023-02-13T10:26:55.052Z,19.06
2023-02-13T10:30:07.120Z,19.37
2023-02-13T10:33:21.060Z,20.75
2023-02-13T10:36:33.941Z,21.82
2023-02-13T10:39:36.631Z,22.34
2023-02-13T10:42:46.521Z,23.15
2023-02-13T10:45:52.250Z,23.07
2023-02-13T10:49:29.722Z,23.31
2023-02-13T10:52:50.571Z,23.76
2023-02-13T10:56:30.794Z,23.55
2023-02-13T11:00:01.249Z,25.43
2023-02-13T11:03:04.905Z,25.42
2023-02-13T11:06:14.525Z,25.86
2023-02-13T11:09:18.164Z,25.03
2023-02-13T11:12:32.831Z,25.36
2023-02-13T11:15:37.170Z,25.07
2023-02-13T11:18:50.337Z,25.26
2023-02-13T11:21:57.766Z,26.03
2023-02-13T11:25:17.404Z,26.44
2023-02-13T11:28:21.717Z,26.69
2023-02-13T11:31:31.530Z,26.23
2023-02-13T11:34:35.197Z,27.14
2023-02-13T11:37:37.604Z,27.87
2023-02-13T11:40:44.494Z,27.82
2023-02-13T11:44:01.393Z,28.22
2023-02-13T11:47:04.867Z,29.55
2023-02-13T11:50:25.967Z,28.53
2023-02-13T11:53:36.537Z,28.65
2023-02-13T11:57:28.711Z,29.18
2023-02-13T12:00:42.909Z,28.84
2023-02-13T12:04:17.373Z,28.65
2023-02-13T12:07:30.020Z,28.41
2023-02-13T12:10:37.187Z,27.85
2023-02-13T12:13:40.338Z,27.00
2023-02-13T12:16:50.984Z,28.63
2023-02-13T12:19:55.701Z,29.21
2023-02-13T12:23:12.572Z,28.77
2023-02-13T12:26:22.734Z,29.01
2023-02-13T12:29:25.601Z,29.63
2023-02-13T12:32:46.592Z,30.48
2023-02-13T12:36:07.825Z,30.61
2023-02-13T12:39:37.566Z,29.86
2023-02-13T12:42:48.240Z,30.23
2023-02-13T12:46:06.891Z,30.46
2023-02-13T12:49:31.528Z,29.84
2023-02-13T12:52:46.036Z,30.04
2023-02-13T12:56:07.729Z,29.58
2023-02-13T12:59:51.171Z,29.21
2023-02-13T13:02:59.796Z,31.07
2023-02-13T13:06:40.963Z,31.71
2023-02-13T13:09:58.002Z,30.44
2023-02-13T13:13:27.935Z,27.71
2023-02-13T13:16:45.300Z,24.99
2023-02-13T13:20:23.169Z,23.31
2023-02-13T13:23:52.868Z,20.95
2023-02-13T13:26:58.130Z,20.06
2023-02-13T13:30:13.367Z,19.69
2023-02-13T13:33:21.491Z,19.09
2023-02-13T13:36:41.718Z,20.08
2023-02-13T13:39:57.322Z,22.01
2023-02-13T13:43:13.510Z,24.33
2023-02-13T13:46:32.784Z,26.61
2023-02-13T13:49:50.046Z,28.32
2023-02-13T13:53:12.119Z,30.06
2023-02-13T13:56:15.328Z,31.62
2023-02-13T13:59:33.822Z,32.07
2023-02-13T14:02:59.030Z,33.11
2023-02-13T14:06:09.442Z,34.44
2023-02-13T14:09:38.201Z,35.59
2023-02-13T14:13:02.556Z,35.68
2023-02-13T14:16:10.077Z,35.95
2023-02-13T14:19:43.642Z,38.07
2023-02-13T14:22:46.270Z,38.51
2023-02-13T14:25:49.749Z,39.16
2023-02-13T14:28:52.110Z,39.69
2023-02-13T14:32:04.320Z,40.52
2023-02-13T14:35:12.981Z,41.36
2023-02-13T14:38:25.392Z,42.34
2023-02-13T14:41:46.376Z,43.31
2023-02-13T14:44:52.812Z,43.71
2023-02-13T14:47:58.080Z,44.63
2023-02-13T14:51:06.001Z,45.03
2023-02-13T14:54:29.904Z,45.39
2023-02-13T14:57:37.647Z,45.92
2023-02-13T15:00:52.565Z,46.50
2023-02-13T15:04:05.553Z,47.17
2023-02-13T15:07:17.936Z,47.56
2023-02-13T15:10:44.612Z,47.58
2023-02-13T15:13:47.120Z,47.79
2023-02-13T15:16:55.800Z,48.29
2023-02-13T15:20:29.143Z,48.91
2023-02-13T15:23:35.260Z,48.80
2023-02-13T15:26:38.020Z,49.42
2023-02-13T15:29:54.302Z,49.64
2023-02-13T15:33:02.945Z,49.87
2023-02-13T15:36:06.608Z,50.35
2023-02-13T15:39:18.948Z,50.48
2023-02-13T15:42:22.411Z,50.43
2023-02-13T15:45:27.535Z,51.11
2023-02-13T15:48:32.271Z,51.42
2023-02-13T15:51:35.349Z,51.78
2023-02-13T15:54:49.388Z,51.98
2023-02-13T15:57:55.047Z,52.50
2023-02-13T16:01:04.798Z,52.46
2023-02-13T16:04:12.438Z,52.79
2023-02-13T16:07:15.475Z,53.12
2023-02-13T16:10:27.805Z,53.66
2023-02-13T16:13:30.719Z,53.92
2023-02-13T16:16:43.031Z,53.99
2023-02-13T16:19:55.710Z,54.32
2023-02-13T16:23:13.942Z,54.06
2023-02-13T16:26:16.897Z,54.01
2023-02-13T16:29:26.312Z,54.17
2023-02-13T16:32:34.890Z,54.33
2023-02-13T16:35:40.968Z,54.75
2023-02-13T16:38:45.797Z,55.12
2023-02-13T16:41:48.812Z,55.00
2023-02-13T16:45:11.613Z,54.92
2023-02-13T16:48:15.702Z,55.46
2023-02-13T16:51:30.396Z,55.20
2023-02-13T16:54:56.984Z,55.38
2023-02-13T16:58:05.206Z,55.84
2023-02-13T17:01:15.811Z,55.99
2023-02-13T17:04:24.948Z,55.97
2023-02-13T17:07:30.373Z,56.21
2023-02-13T17:10:35.811Z,56.47
2023-02-13T17:13:59.528Z,56.75
2023-02-13T17:17:10.246Z,56.52
2023-02-13T17:20:18.788Z,56.49
2023-02-13T17:23:25.184Z,56.73
2023-02-13T17:26:29.800Z,56.42
2023-02-13T17:29:35.352Z,56.13
2023-02-13T17:32:42.602Z,56.44
2023-02-13T17:35:47.649Z,56.80
2023-02-13T17:38:52.252Z,56.55
2023-02-13T17:41:56.334Z,56.37
2023-02-13T17:45:01.024Z,56.07
2023-02-13T17:48:06.069Z,56.32
2023-02-13T17:51:14.089Z,56.60
2023-02-13T17:54:16.930Z,56.72
2023-02-13T17:57:20.143Z,56.94
2023-02-13T18:00:24.653Z,57.07
2023-02-13T18:03:27.803Z,57.38
2023-02-13T18:06:30.594Z,57.49
2023-02-13T18:09:33.654Z,58.07
2023-02-13T18:12:36.534Z,57.83
2023-02-13T18:15:42.556Z,58.08
2023-02-13T18:18:45.467Z,58.00
2023-02-13T18:21:48.309Z,58.46
2023-02-13T18:24:51.698Z,58.76
2023-02-13T18:27:55.367Z,58.73
2023-02-13T18:30:58.525Z,58.98
2023-02-13T18:34:01.694Z,59.17
2023-02-13T18:37:05.942Z,59.32
2023-02-13T18:40:09.988Z,59.44
2023-02-13T18:43:12.773Z,59.84
2023-02-13T18:46:15.660Z,59.82
2023-02-13T18:49:18.552Z,60.00
2023-02-13T18:52:21.404Z,60.11
2023-02-13T18:55:24.234Z,60.70
2023-02-13T18:58:27.143Z,60.80
2023-02-13T19:01:30.108Z,61.17
2023-02-13T19:04:35.155Z,61.20
2023-02-13T19:07:38.038Z,61.50
2023-02-13T19:10:41.010Z,61.40
2023-02-13T19:13:44.600Z,61.96
2023-02-13T19:16:47.449Z,61.93
2023-02-13T19:19:50.530Z,62.16
2023-02-13T19:22:55.186Z,62.34
2023-02-13T19:25:59.329Z,62.55
2023-02-13T19:29:02.228Z,62.75
2023-02-13T19:32:05.286Z,63.09
2023-02-13T19:35:08.390Z,63.16
2023-02-13T19:38:11.385Z,62.74
2023-02-13T19:41:17.275Z,63.04
2023-02-13T19:44:20.123Z,63.17
2023-02-13T19:47:23.022Z,63.57
2023-02-13T19:50:25.843Z,63.50
2023-02-13T19:53:28.756Z,64.01
2023-02-13T19:56:33.332Z,64.00
2023-02-13T19:59:36.243Z,64.11
2023-02-13T20:02:39.044Z,64.27
2023-02-13T20:05:41.963Z,64.36
2023-02-13T20:08:45.119Z,64.82
2023-02-13T20:11:48.098Z,64.98
2023-02-13T20:14:50.969Z,65.25
2023-02-13T20:17:53.801Z,65.26
2023-02-13T20:20:57.179Z,65.32
2023-02-13T20:24:00.349Z,65.34
2023-02-13T20:27:03.183Z,65.44
2023-02-13T20:30:07.858Z,65.25
2023-02-13T20:33:11.133Z,65.49
2023-02-13T20:36:16.937Z,65.46
2023-02-13T20:39:19.707Z,65.55
2023-02-13T20:42:22.554Z,65.73
2023-02-13T20:45:25.377Z,65.82
2023-02-13T20:48:28.527Z,65.79
2023-02-13T20:51:31.548Z,65.99
2023-02-13T20:54:34.764Z,66.26
2023-02-13T20:57:37.731Z,65.86
2023-02-13T21:00:40.710Z,65.94
2023-02-13T21:03:44.660Z,66.40
2023-02-13T21:06:48.052Z,66.65
2023-02-13T21:09:50.859Z,66.81
2023-02-13T21:12:53.701Z,67.10
2023-02-13T21:16:04.775Z,67.00
2023-02-13T21:19:12.496Z,67.10
2023-02-13T21:22:15.307Z,67.27
2023-02-13T21:25:18.827Z,67.28
2023-02-13T21:28:21.792Z,67.30
2023-02-13T21:31:40.683Z,67.31
2023-02-13T21:34:43.711Z,67.59
2023-02-13T21:37:46.656Z,66.12
2023-02-13T21:40:49.499Z,66.56
2023-02-13T21:43:52.837Z,66.22
2023-02-13T21:46:56.507Z,66.13
2023-02-13T21:50:00.570Z,66.35
2023-02-13T21:53:03.618Z,66.05
2023-02-13T21:56:09.198Z,66.04
2023-02-13T21:59:16.842Z,66.18
2023-02-13T22:02:19.808Z,66.32
2023-02-13T22:05:23.016Z,66.20
2023-02-13T22:08:25.565Z,66.00
2023-02-13T22:11:29.453Z,66.61
2023-02-13T22:14:32.031Z,66.93
2023-02-13T22:17:36.769Z,67.23
2023-02-13T22:20:39.971Z,67.29
2023-02-13T22:23:44.702Z,67.44
2023-02-13T22:26:47.341Z,67.53
2023-02-13T22:29:53.449Z,67.61
2023-02-13T22:32:57.017Z,67.56
2023-02-13T22:36:00.639Z,67.85
2023-02-13T22:39:03.220Z,67.96
2023-02-13T22:42:07.262Z,68.16
2023-02-13T22:45:09.913Z,68.44
2023-02-13T22:48:13.040Z,68.32
2023-02-13T22:51:18.662Z,68.08
2023-02-13T22:54:21.790Z,67.96
2023-02-13T22:57:24.425Z,67.95
2023-02-13T23:00:29.081Z,67.79
2023-02-13T23:03:32.995Z,67.78
2023-02-13T23:06:36.196Z,67.47
2023-02-13T23:09:38.881Z,67.69
2023-02-13T23:12:45.666Z,67.74
2023-02-13T23:15:50.283Z,68.01
2023-02-13T23:18:55.622Z,68.17
2023-02-13T23:21:59.328Z,68.03
2023-02-13T23:25:05.246Z,68.01
2023-02-13T23:28:08.912Z,67.95
2023-02-13T23:31:12.128Z,68.14
2023-02-13T23:34:14.811Z,68.31
2023-02-13T23:37:18.545Z,68.63
2023-02-13T23:40:21.167Z,68.77
2023-02-13T23:43:24.253Z,68.82
2023-02-13T23:46:27.257Z,68.93
2023-02-13T23:49:30.690Z,68.84
2023-02-13T23:52:33.215Z,68.88
2023-02-13T23:55:36.452Z,68.94
2023-02-13T23:58:39.031Z,69.07
